Time;durP1;ratioP1;P1;durP2;ratioP2;P2;SDS_P1;SDS_P2;PMS_P1;PMS_P2;Temp;Humidity;BMP_temperature;BMP_pressure;BME280_temperature;BME280_humidity;BME280_pressure;Samples;Min_cycle;Max_cycle;Signal;HPM_P1;HPM_P2
2023/09/12 00:00:18;;;;;;;28.37;24.47;;;;;;;;;;5051472;28;20165;-53
2023/09/12 00:02:47;;;;;;;31.37;24.87;;;;;;;;;;5049289;28;20177;-49
2023/09/12 00:05:13;;;;;;;33.53;25.07;;;;;;;;;;5050127;28;20238;-54
2023/09/12 00:07:40;;;;;;;35.30;26.00;;;;;;;;;;5047433;28;20663;-51
2023/09/12 00:10:06;;;;;;;30.73;25.10;;;;;;;;;;5049405;28;20286;-51
2023/09/12 00:12:32;;;;;;;32.37;26.33;;;;;;;;;;5051139;28;20449;-53
2023/09/12 00:14:59;;;;;;;37.67;28.90;;;;;;;;;;5050077;28;20640;-54
2023/09/12 00:17:26;;;;;;;32.13;27.27;;;;;;;;;;5048852;28;20187;-50
2023/09/12 00:19:52;;;;;;;37.20;30.00;;;;;;;;;;5047357;28;20250;-52
2023/09/12 00:22:20;;;;;;;38.93;32.90;;;;;;;;;;5047369;28;20266;-52
2023/09/12 00:24:46;;;;;;;41.40;30.00;;;;;;;;;;5047623;28;20243;-53
2023/09/12 00:27:12;;;;;;;34.37;28.07;;;;;;;;;;5046792;28;20213;-51
2023/09/12 00:29:39;;;;;;;39.90;28.53;;;;;;;;;;5046721;28;20181;-53
2023/09/12 00:32:05;;;;;;;34.23;26.17;;;;;;;;;;5046999;28;20177;-54
2023/09/12 00:34:32;;;;;;;40.83;28.17;;;;;;;;;;5048109;28;20178;-56
2023/09/12 00:36:57;;;;;;;42.27;29.87;;;;;;;;;;5049885;28;20309;-53
2023/09/12 00:39:23;;;;;;;41.00;29.13;;;;;;;;;;5048763;28;20473;-52
2023/09/12 00:41:49;;;;;;;39.90;29.07;;;;;;;;;;5048532;28;20589;-54
2023/09/12 00:44:17;;;;;;;41.60;26.97;;;;;;;;;;5049600;28;20173;-51
2023/09/12 00:46:44;;;;;;;39.90;26.53;;;;;;;;;;5048770;28;20268;-54
2023/09/12 00:49:10;;;;;;;30.63;24.37;;;;;;;;;;5048000;28;20356;-50
2023/09/12 00:51:37;;;;;;;32.33;22.77;;;;;;;;;;5049617;28;20176;-52
2023/09/12 00:54:05;;;;;;;36.37;24.03;;;;;;;;;;5048895;28;20232;-51
2023/09/12 00:56:31;;;;;;;34.00;22.60;;;;;;;;;;5050134;28;20179;-51
2023/09/12 00:58:58;;;;;;;34.33;22.90;;;;;;;;;;5051332;28;20169;-52
2023/09/12 01:01:24;;;;;;;30.93;22.07;;;;;;;;;;5047621;28;20206;-52
2023/09/12 01:03:50;;;;;;;25.97;20.73;;;;;;;;;;5048703;28;20216;-54
2023/09/12 01:06:19;;;;;;;25.33;19.43;;;;;;;;;;5048763;28;20268;-51
2023/09/12 01:08:46;;;;;;;24.00;18.17;;;;;;;;;;5049218;28;20204;-52
2023/09/12 01:11:14;;;;;;;21.23;17.50;;;;;;;;;;5051180;28;20269;-51
2023/09/12 01:13:40;;;;;;;29.40;19.60;;;;;;;;;;5050387;28;20177;-52
2023/09/12 01:16:06;;;;;;;24.80;17.83;;;;;;;;;;5050293;28;20161;-52
2023/09/12 01:18:33;;;;;;;22.70;15.97;;;;;;;;;;5050624;28;20450;-51
2023/09/12 01:21:08;;;;;;;20.50;16.90;;;;;;;;;;5050051;28;20178;-53
2023/09/12 01:23:52;;;;;;;22.60;17.30;;;;;;;;;;5050021;28;20254;-54
2023/09/12 01:26:28;;;;;;;23.43;16.87;;;;;;;;;;5049780;28;20572;-51
2023/09/12 01:28:56;;;;;;;19.67;14.43;;;;;;;;;;5050790;28;20217;-52
2023/09/12 01:31:24;;;;;;;21.13;14.63;;;;;;;;;;5051725;28;20176;-50
2023/09/12 01:33:50;;;;;;;18.87;15.27;;;;;;;;;;5049164;28;20525;-52
2023/09/12 01:36:16;;;;;;;19.27;15.17;;;;;;;;;;5048012;28;20405;-53
2023/09/12 01:38:43;;;;;;;22.00;16.13;;;;;;;;;;5051824;28;20317;-52
2023/09/12 01:44:14;;;;;;;18.67;14.77;;;;;;;;;;5055554;28;20238;-53
2023/09/12 01:46:42;;;;;;;17.87;13.57;;;;;;;;;;5052977;28;20185;-54
2023/09/12 01:49:09;;;;;;;16.80;12.83;;;;;;;;;;5053081;28;20170;-54
2023/09/12 01:51:36;;;;;;;16.57;14.43;;;;;;;;;;5053700;28;20184;-55
2023/09/12 01:54:03;;;;;;;17.60;12.73;;;;;;;;;;5054671;28;20443;-52
2023/09/12 01:56:30;;;;;;;24.33;15.53;;;;;;;;;;5054295;28;20177;-52
2023/09/12 01:58:57;;;;;;;17.67;12.50;;;;;;;;;;5052717;28;20170;-55
2023/09/12 02:01:24;;;;;;;17.33;12.77;;;;;;;;;;5052388;28;20174;-53
2023/09/12 02:03:50;;;;;;;22.20;13.93;;;;;;;;;;5052619;28;20208;-50
2023/09/12 02:06:16;;;;;;;23.27;16.53;;;;;;;;;;5051804;28;20181;-54
2023/09/12 02:08:43;;;;;;;21.67;15.93;;;;;;;;;;5049896;28;20201;-53
2023/09/12 02:11:09;;;;;;;20.73;15.10;;;;;;;;;;5051245;28;20558;-52
2023/09/12 02:13:35;;;;;;;18.83;16.37;;;;;;;;;;5052747;28;20177;-54
2023/09/12 02:16:03;;;;;;;17.20;13.70;;;;;;;;;;5051909;28;20174;-50
2023/09/12 02:18:29;;;;;;;24.17;17.50;;;;;;;;;;5051696;28;20211;-52
2023/09/12 02:20:55;;;;;;;19.03;16.93;;;;;;;;;;5053393;28;20255;-50
2023/09/12 02:23:23;;;;;;;20.13;15.93;;;;;;;;;;5052228;28;20259;-53
2023/09/12 02:25:49;;;;;;;19.67;15.00;;;;;;;;;;5052189;28;20489;-51
2023/09/12 02:28:17;;;;;;;20.10;15.43;;;;;;;;;;5051700;28;20619;-51
2023/09/12 02:30:43;;;;;;;23.23;16.47;;;;;;;;;;5051322;28;20176;-52
2023/09/12 02:33:09;;;;;;;22.00;16.93;;;;;;;;;;5051318;28;20174;-55
2023/09/12 02:35:35;;;;;;;20.10;17.10;;;;;;;;;;5051125;28;20170;-51
2023/09/12 02:38:01;;;;;;;17.77;14.17;;;;;;;;;;5051853;28;20263;-52
2023/09/12 02:40:28;;;;;;;23.23;18.20;;;;;;;;;;5051343;28;20173;-49
2023/09/12 02:42:54;;;;;;;23.90;16.63;;;;;;;;;;5053279;28;20256;-52
2023/09/12 02:45:20;;;;;;;24.83;15.80;;;;;;;;;;5053056;28;20204;-52
2023/09/12 02:47:46;;;;;;;18.63;15.63;;;;;;;;;;5052625;28;20241;-51
2023/09/12 02:50:12;;;;;;;24.17;17.40;;;;;;;;;;5052322;28;20178;-55
2023/09/12 02:52:38;;;;;;;22.73;15.63;;;;;;;;;;5052421;28;20229;-51
2023/09/12 02:55:04;;;;;;;16.83;14.97;;;;;;;;;;5052686;28;20173;-53
2023/09/12 02:57:33;;;;;;;29.83;19.53;;;;;;;;;;5052666;28;20686;-52
2023/09/12 02:59:59;;;;;;;20.00;16.93;;;;;;;;;;5051417;28;20175;-51
2023/09/12 03:02:25;;;;;;;23.10;16.53;;;;;;;;;;5050812;28;20181;-53
2023/09/12 03:04:51;;;;;;;22.77;18.10;;;;;;;;;;5049679;28;20356;-54
2023/09/12 03:07:18;;;;;;;22.47;17.53;;;;;;;;;;5049589;28;20231;-54
2023/09/12 03:09:44;;;;;;;22.10;16.27;;;;;;;;;;5050884;28;20170;-53
2023/09/12 03:12:10;;;;;;;26.07;19.60;;;;;;;;;;5049270;28;20220;-54
2023/09/12 03:14:35;;;;;;;23.80;19.00;;;;;;;;;;5050979;28;20174;-51
2023/09/12 03:17:02;;;;;;;29.20;19.13;;;;;;;;;;5051208;28;20180;-52
2023/09/12 03:19:30;;;;;;;26.17;18.70;;;;;;;;;;5051050;28;20178;-49
2023/09/12 03:21:56;;;;;;;28.17;21.80;;;;;;;;;;5051412;28;20506;-52
2023/09/12 03:24:24;;;;;;;29.87;21.80;;;;;;;;;;5051862;28;20580;-49
2023/09/12 03:26:50;;;;;;;29.83;22.80;;;;;;;;;;5050767;28;20174;-53
2023/09/12 03:29:17;;;;;;;25.03;21.23;;;;;;;;;;5050706;28;20272;-54
2023/09/12 03:31:43;;;;;;;25.37;20.20;;;;;;;;;;5049067;28;20174;-52
2023/09/12 03:34:09;;;;;;;31.10;22.03;;;;;;;;;;5050075;28;20174;-54
2023/09/12 03:36:35;;;;;;;23.63;20.50;;;;;;;;;;5048649;28;20204;-51
2023/09/12 03:39:02;;;;;;;22.90;18.90;;;;;;;;;;5049873;28;20672;-49
2023/09/12 03:41:28;;;;;;;29.30;23.30;;;;;;;;;;5049634;28;20531;-53
2023/09/12 03:43:55;;;;;;;26.97;21.70;;;;;;;;;;5050433;28;20166;-59
2023/09/12 03:46:21;;;;;;;34.03;23.37;;;;;;;;;;5049636;28;20342;-51
2023/09/12 03:48:48;;;;;;;26.60;20.00;;;;;;;;;;5048476;28;20673;-53
2023/09/12 03:51:15;;;;;;;33.23;24.13;;;;;;;;;;5047105;28;20252;-50
2023/09/12 03:53:41;;;;;;;30.77;23.50;;;;;;;;;;5049254;28;20393;-52
2023/09/12 03:56:07;;;;;;;37.47;26.20;;;;;;;;;;5049424;28;20454;-52
2023/09/12 03:58:33;;;;;;;30.70;24.57;;;;;;;;;;5054317;28;20180;-56
2023/09/12 04:00:59;;;;;;;25.00;19.87;;;;;;;;;;5048416;28;20181;-50
2023/09/12 04:03:25;;;;;;;32.93;24.77;;;;;;;;;;5050312;28;20518;-50
2023/09/12 04:05:52;;;;;;;29.47;23.53;;;;;;;;;;5050234;28;20553;-51
2023/09/12 04:08:18;;;;;;;29.33;25.00;;;;;;;;;;5048636;28;20229;-53
2023/09/12 04:10:44;;;;;;;32.73;25.17;;;;;;;;;;5049238;28;20563;-51
2023/09/12 04:13:10;;;;;;;32.43;24.50;;;;;;;;;;5049996;28;20685;-54
2023/09/12 04:15:36;;;;;;;28.30;19.43;;;;;;;;;;5048469;28;20239;-52
2023/09/12 04:18:02;;;;;;;27.13;20.70;;;;;;;;;;5047910;28;20178;-54
2023/09/12 04:20:28;;;;;;;23.63;19.00;;;;;;;;;;5049055;28;20177;-49
2023/09/12 04:22:54;;;;;;;24.53;20.37;;;;;;;;;;5049002;28;20178;-54
2023/09/12 04:25:21;;;;;;;25.50;19.03;;;;;;;;;;5049621;28;20239;-52
2023/09/12 04:27:47;;;;;;;24.30;18.93;;;;;;;;;;5048285;28;20236;-51
2023/09/12 04:30:13;;;;;;;27.47;21.23;;;;;;;;;;5047544;28;20693;-54
2023/09/12 04:32:39;;;;;;;29.93;22.53;;;;;;;;;;5047453;28;20169;-54
2023/09/12 04:35:06;;;;;;;30.97;20.10;;;;;;;;;;5046703;28;20179;-52
2023/09/12 04:37:32;;;;;;;32.60;24.80;;;;;;;;;;5045600;28;20181;-51
2023/09/12 04:39:58;;;;;;;30.60;23.57;;;;;;;;;;5046560;28;20177;-51
2023/09/12 04:42:24;;;;;;;27.93;23.37;;;;;;;;;;5046303;28;20174;-51
2023/09/12 04:44:50;;;;;;;29.37;22.00;;;;;;;;;;5049537;28;20180;-51
2023/09/12 04:47:16;;;;;;;28.07;20.40;;;;;;;;;;5047653;28;20205;-53
2023/09/12 04:49:44;;;;;;;27.43;20.53;;;;;;;;;;5046079;28;20307;-51
2023/09/12 04:52:10;;;;;;;31.13;24.40;;;;;;;;;;5044447;28;20491;-50
2023/09/12 04:54:36;;;;;;;33.03;25.53;;;;;;;;;;5042894;28;20177;-50
2023/09/12 04:57:02;;;;;;;34.23;26.50;;;;;;;;;;5044861;28;20271;-54
2023/09/12 04:59:28;;;;;;;33.23;25.80;;;;;;;;;;5043560;28;20426;-52
2023/09/12 05:01:54;;;;;;;33.30;25.73;;;;;;;;;;5043421;28;20349;-51
2023/09/12 05:04:21;;;;;;;37.13;28.33;;;;;;;;;;5045434;28;20244;-54
2023/09/12 05:06:47;;;;;;;34.33;26.50;;;;;;;;;;5045766;28;20176;-53
2023/09/12 05:09:14;;;;;;;34.80;26.97;;;;;;;;;;5045386;28;20173;-51
2023/09/12 05:11:40;;;;;;;33.90;29.40;;;;;;;;;;5047817;28;20169;-53
2023/09/12 05:14:06;;;;;;;35.20;27.47;;;;;;;;;;5051528;28;20558;-53
2023/09/12 05:16:32;;;;;;;39.40;28.30;;;;;;;;;;5048891;28;20177;-51
2023/09/12 05:18:58;;;;;;;40.37;29.43;;;;;;;;;;5050889;28;20235;-52
2023/09/12 05:21:24;;;;;;;39.03;29.33;;;;;;;;;;5051094;28;20576;-51
2023/09/12 05:23:51;;;;;;;42.00;32.43;;;;;;;;;;5049317;28;20176;-51
2023/09/12 05:26:17;;;;;;;41.27;30.53;;;;;;;;;;5050636;28;20181;-55
2023/09/12 05:28:43;;;;;;;40.03;32.17;;;;;;;;;;5048858;28;20231;-54
2023/09/12 05:31:09;;;;;;;43.10;31.07;;;;;;;;;;5049094;28;20476;-55
2023/09/12 05:33:36;;;;;;;36.87;27.03;;;;;;;;;;5048911;28;20272;-53
2023/09/12 05:36:03;;;;;;;42.27;31.33;;;;;;;;;;5049649;28;20185;-50
2023/09/12 05:38:29;;;;;;;39.73;27.23;;;;;;;;;;5051270;28;20276;-53
2023/09/12 05:40:55;;;;;;;33.83;25.27;;;;;;;;;;5050067;28;20545;-52
2023/09/12 05:43:22;;;;;;;39.30;26.87;;;;;;;;;;5049126;28;20181;-56
2023/09/12 05:45:49;;;;;;;29.47;23.23;;;;;;;;;;5048268;28;20489;-52
2023/09/12 05:48:15;;;;;;;36.90;27.50;;;;;;;;;;5046412;28;20215;-50
2023/09/12 05:50:44;;;;;;;33.80;26.27;;;;;;;;;;5044992;28;20631;-49
2023/09/12 05:53:10;;;;;;;32.67;23.50;;;;;;;;;;5046007;28;20316;-50
2023/09/12 05:55:37;;;;;;;36.10;26.73;;;;;;;;;;5045271;28;20205;-51
2023/09/12 05:58:05;;;;;;;33.33;26.07;;;;;;;;;;5044872;28;20435;-52
2023/09/12 06:00:31;;;;;;;35.57;25.97;;;;;;;;;;5044101;28;20268;-51
2023/09/12 06:02:59;;;;;;;37.23;28.57;;;;;;;;;;5043448;28;20178;-53
2023/09/12 06:05:25;;;;;;;32.47;25.97;;;;;;;;;;5043318;28;20584;-53
2023/09/12 06:07:52;;;;;;;37.53;29.20;;;;;;;;;;5040349;28;20212;-51
2023/09/12 06:10:18;;;;;;;37.07;27.17;;;;;;;;;;5043224;28;20260;-52
2023/09/12 06:12:44;;;;;;;32.63;25.17;;;;;;;;;;5044458;28;20173;-49
2023/09/12 06:15:10;;;;;;;27.17;22.37;;;;;;;;;;5044846;28;20180;-50
2023/09/12 06:17:37;;;;;;;34.80;26.13;;;;;;;;;;5043674;28;20184;-50
2023/09/12 06:20:06;;;;;;;30.47;25.23;;;;;;;;;;5042784;28;20236;-52
2023/09/12 06:22:32;;;;;;;33.07;24.50;;;;;;;;;;5042718;28;20323;-49
2023/09/12 06:24:58;;;;;;;34.43;26.53;;;;;;;;;;5041935;28;20305;-49
2023/09/12 06:27:24;;;;;;;33.00;25.47;;;;;;;;;;5039833;28;20381;-50
2023/09/12 06:29:50;;;;;;;34.93;26.33;;;;;;;;;;5042154;28;20248;-51
2023/09/12 06:32:20;;;;;;;31.57;23.70;;;;;;;;;;5041366;28;20204;-52
2023/09/12 06:34:47;;;;;;;32.30;26.20;;;;;;;;;;5042476;28;20196;-52
2023/09/12 06:37:13;;;;;;;37.67;26.30;;;;;;;;;;5041277;28;20513;-49
2023/09/12 06:39:39;;;;;;;31.40;25.03;;;;;;;;;;5043599;28;20174;-49
2023/09/12 06:42:05;;;;;;;31.17;22.30;;;;;;;;;;5043297;28;20188;-52
2023/09/12 06:44:31;;;;;;;31.30;24.93;;;;;;;;;;5043699;28;20223;-51
2023/09/12 06:46:58;;;;;;;40.37;28.47;;;;;;;;;;5043692;28;20408;-52
2023/09/12 06:49:24;;;;;;;37.90;27.87;;;;;;;;;;5044814;28;20268;-51
2023/09/12 06:51:50;;;;;;;33.83;25.67;;;;;;;;;;5044486;28;20225;-49
2023/09/12 06:54:16;;;;;;;40.87;28.03;;;;;;;;;;5042449;28;20308;-50
2023/09/12 06:56:42;;;;;;;39.80;29.07;;;;;;;;;;5045070;28;20162;-53
2023/09/12 06:59:08;;;;;;;43.17;29.60;;;;;;;;;;5045573;28;20173;-49
2023/09/12 07:01:34;;;;;;;38.90;29.00;;;;;;;;;;5044656;28;20228;-49
2023/09/12 07:04:03;;;;;;;38.70;27.73;;;;;;;;;;5046414;28;20184;-51
2023/09/12 07:06:28;;;;;;;36.27;28.20;;;;;;;;;;5045455;28;20180;-51
2023/09/12 07:08:54;;;;;;;46.00;28.57;;;;;;;;;;5046218;28;20208;-49
2023/09/12 07:11:20;;;;;;;35.93;26.27;;;;;;;;;;5046792;28;20319;-51
2023/09/12 07:13:47;;;;;;;35.70;23.40;;;;;;;;;;5045165;28;20597;-48
2023/09/12 07:16:13;;;;;;;26.20;21.53;;;;;;;;;;5046538;28;20574;-54
2023/09/12 07:18:39;;;;;;;31.70;23.70;;;;;;;;;;5045771;28;20347;-49
2023/09/12 07:21:07;;;;;;;36.47;26.17;;;;;;;;;;5044364;28;20480;-50
2023/09/12 07:23:34;;;;;;;30.97;23.23;;;;;;;;;;5043834;28;20181;-52
2023/09/12 07:26:00;;;;;;;34.53;25.73;;;;;;;;;;5043860;28;20474;-50
2023/09/12 07:28:27;;;;;;;30.27;23.93;;;;;;;;;;5044197;28;20297;-49
2023/09/12 07:30:53;;;;;;;37.27;26.87;;;;;;;;;;5043117;28;20173;-51
2023/09/12 07:33:21;;;;;;;75.10;37.70;;;;;;;;;;5042940;28;20166;-50
2023/09/12 07:35:47;;;;;;;42.63;26.87;;;;;;;;;;5043142;28;20245;-51
2023/09/12 07:38:16;;;;;;;34.87;25.60;;;;;;;;;;5043029;28;20572;-50
2023/09/12 07:40:43;;;;;;;30.37;21.27;;;;;;;;;;5044216;28;20388;-52
2023/09/12 07:43:10;;;;;;;37.33;27.23;;;;;;;;;;5042710;28;20433;-51
2023/09/12 07:45:39;;;;;;;24.67;21.20;;;;;;;;;;5041576;28;20364;-50
2023/09/12 07:48:08;;;;;;;39.73;28.47;;;;;;;;;;5040359;28;20303;-55
2023/09/12 07:50:34;;;;;;;35.77;27.77;;;;;;;;;;5040549;28;20725;-50
2023/09/12 07:53:00;;;;;;;33.53;26.27;;;;;;;;;;5040722;28;20595;-50
2023/09/12 07:55:30;;;;;;;30.50;23.53;;;;;;;;;;5040405;28;20276;-51
2023/09/12 07:57:56;;;;;;;40.63;29.83;;;;;;;;;;5044660;28;20346;-54
2023/09/12 08:00:22;;;;;;;38.07;26.57;;;;;;;;;;5046155;28;20176;-54
2023/09/12 08:02:48;;;;;;;41.03;30.37;;;;;;;;;;5046113;28;20344;-51
2023/09/12 08:05:15;;;;;;;38.73;29.20;;;;;;;;;;5047000;28;20189;-53
2023/09/12 08:07:41;;;;;;;38.73;29.93;;;;;;;;;;5047253;28;20201;-54
2023/09/12 08:10:07;;;;;;;36.70;29.10;;;;;;;;;;5045823;28;20170;-51
2023/09/12 08:12:35;;;;;;;32.27;25.27;;;;;;;;;;5044308;28;20329;-48
2023/09/12 08:15:01;;;;;;;38.03;28.87;;;;;;;;;;5044943;28;20253;-53
2023/09/12 08:17:27;;;;;;;41.20;29.60;;;;;;;;;;5042704;28;20173;-49
2023/09/12 08:19:53;;;;;;;42.87;29.40;;;;;;;;;;5041720;28;20238;-52
2023/09/12 08:22:20;;;;;;;42.83;30.40;;;;;;;;;;5042107;28;20177;-53
2023/09/12 08:24:47;;;;;;;39.90;30.43;;;;;;;;;;5042001;28;20201;-49
2023/09/12 08:27:13;;;;;;;44.00;30.93;;;;;;;;;;5041415;28;20180;-54
2023/09/12 08:29:41;;;;;;;37.47;29.43;;;;;;;;;;5041229;28;20464;-53
2023/09/12 08:32:07;;;;;;;37.20;29.07;;;;;;;;;;5042419;28;20188;-49
2023/09/12 08:34:33;;;;;;;33.40;26.37;;;;;;;;;;5041046;28;20173;-48
2023/09/12 08:36:59;;;;;;;40.43;30.67;;;;;;;;;;5043225;28;20425;-51
2023/09/12 08:39:26;;;;;;;33.53;27.00;;;;;;;;;;5043254;28;20173;-52
2023/09/12 08:41:52;;;;;;;35.10;26.93;;;;;;;;;;5043274;28;20533;-50
2023/09/12 08:44:18;;;;;;;32.93;23.93;;;;;;;;;;5043057;28;20316;-51
2023/09/12 08:46:45;;;;;;;32.00;25.73;;;;;;;;;;5046125;28;20382;-52
2023/09/12 08:49:11;;;;;;;30.40;24.83;;;;;;;;;;5045882;28;20327;-53
2023/09/12 08:51:39;;;;;;;36.87;26.37;;;;;;;;;;5045756;28;20186;-53
2023/09/12 08:54:05;;;;;;;34.83;27.00;;;;;;;;;;5047729;28;20224;-51
2023/09/12 08:56:32;;;;;;;34.10;26.83;;;;;;;;;;5045016;28;20587;-52
2023/09/12 08:59:00;;;;;;;34.00;26.43;;;;;;;;;;5045909;28;20176;-51
2023/09/12 09:01:27;;;;;;;28.13;23.50;;;;;;;;;;5047577;28;20197;-50
2023/09/12 09:03:53;;;;;;;33.17;26.37;;;;;;;;;;5048369;28;20215;-49
2023/09/12 09:06:22;;;;;;;37.67;25.60;;;;;;;;;;5048252;28;20212;-52
2023/09/12 09:08:48;;;;;;;26.00;21.43;;;;;;;;;;5047846;28;20300;-53
2023/09/12 09:11:14;;;;;;;30.50;25.00;;;;;;;;;;5044590;28;20272;-54
2023/09/12 09:13:41;;;;;;;34.27;24.53;;;;;;;;;;5046239;28;20427;-50
2023/09/12 09:16:15;;;;;;;31.83;24.47;;;;;;;;;;5044358;28;20451;-50
2023/09/12 09:18:54;;;;;;;28.53;24.77;;;;;;;;;;5042134;28;20223;-48
2023/09/12 09:21:24;;;;;;;33.70;25.67;;;;;;;;;;5040793;28;20188;-51
2023/09/12 09:23:51;;;;;;;24.80;20.07;;;;;;;;;;5041943;28;20161;-55
2023/09/12 09:26:17;;;;;;;31.13;22.67;;;;;;;;;;5043280;28;20181;-50
2023/09/12 09:28:43;;;;;;;28.90;23.77;;;;;;;;;;5047171;28;20270;-53
2023/09/12 09:31:13;;;;;;;32.13;25.10;;;;;;;;;;5046781;28;20268;-55
2023/09/12 09:33:40;;;;;;;26.03;21.63;;;;;;;;;;5046077;28;20565;-49
2023/09/12 09:36:07;;;;;;;30.37;23.90;;;;;;;;;;5044928;28;20287;-53
2023/09/12 09:38:35;;;;;;;27.20;21.10;;;;;;;;;;5044279;28;20182;-53
2023/09/12 09:41:04;;;;;;;22.43;20.07;;;;;;;;;;5042850;28;20531;-53
2023/09/12 09:43:32;;;;;;;27.73;22.67;;;;;;;;;;5043174;28;20258;-53
2023/09/12 09:45:58;;;;;;;18.67;16.63;;;;;;;;;;5042933;28;20705;-53
2023/09/12 09:48:27;;;;;;;19.73;15.20;;;;;;;;;;5042585;28;20205;-53
2023/09/12 09:50:54;;;;;;;28.93;22.03;;;;;;;;;;5045270;28;20178;-49
2023/09/12 09:53:33;;;;;;;22.77;19.17;;;;;;;;;;5045849;28;20295;-52
2023/09/12 09:56:08;;;;;;;29.67;23.53;;;;;;;;;;5047688;28;20539;-48
2023/09/12 09:58:34;;;;;;;29.53;24.27;;;;;;;;;;5045854;28;20298;-52
2023/09/12 10:01:03;;;;;;;31.87;24.93;;;;;;;;;;5046073;28;20223;-54
2023/09/12 10:03:31;;;;;;;26.77;21.73;;;;;;;;;;5046117;28;20228;-51
2023/09/12 10:05:58;;;;;;;24.63;21.57;;;;;;;;;;5047103;28;20213;-54
2023/09/12 10:08:25;;;;;;;29.40;23.47;;;;;;;;;;5048435;28;20474;-49
2023/09/12 10:10:52;;;;;;;18.37;16.37;;;;;;;;;;5048614;28;20227;-51
2023/09/12 10:13:19;;;;;;;20.90;17.10;;;;;;;;;;5049009;28;20179;-50
2023/09/12 10:15:46;;;;;;;29.83;21.37;;;;;;;;;;5052176;28;20165;-51
2023/09/12 10:18:15;;;;;;;27.23;22.47;;;;;;;;;;5053499;28;20185;-52
2023/09/12 10:20:55;;;;;;;24.70;17.83;;;;;;;;;;5052934;28;20186;-53
2023/09/12 10:23:37;;;;;;;25.90;21.40;;;;;;;;;;5045316;28;20211;-51
2023/09/12 10:26:03;;;;;;;26.33;19.73;;;;;;;;;;5046011;28;20185;-54
2023/09/12 10:28:30;;;;;;;22.23;18.60;;;;;;;;;;5045309;28;20244;-50
2023/09/12 10:30:58;;;;;;;21.33;17.00;;;;;;;;;;5046550;28;20266;-49
2023/09/12 10:33:25;;;;;;;23.47;19.13;;;;;;;;;;5046835;28;20177;-52
2023/09/12 10:35:52;;;;;;;18.33;16.40;;;;;;;;;;5042506;28;20415;-55
2023/09/12 10:38:20;;;;;;;22.50;17.00;;;;;;;;;;5042609;28;20660;-51
2023/09/12 10:40:47;;;;;;;19.77;15.47;;;;;;;;;;5042216;28;20197;-55
2023/09/12 10:43:17;;;;;;;18.87;16.30;;;;;;;;;;5041461;28;20169;-54
2023/09/12 10:45:44;;;;;;;17.10;15.10;;;;;;;;;;5042602;28;20243;-52
2023/09/12 10:48:11;;;;;;;18.60;15.40;;;;;;;;;;5043910;28;20283;-55
2023/09/12 10:50:38;;;;;;;20.43;15.73;;;;;;;;;;5043463;28;20180;-52
2023/09/12 10:53:14;;;;;;;18.10;15.77;;;;;;;;;;5045634;28;20318;-49
2023/09/12 10:55:41;;;;;;;22.03;18.60;;;;;;;;;;5044938;28;20216;-54
2023/09/12 10:58:10;;;;;;;19.07;16.50;;;;;;;;;;5044903;28;20464;-51
2023/09/12 11:00:38;;;;;;;21.87;17.67;;;;;;;;;;5044631;28;20437;-53
2023/09/12 11:03:23;;;;;;;18.70;16.80;;;;;;;;;;5043074;28;20219;-55
2023/09/12 11:05:53;;;;;;;19.47;17.17;;;;;;;;;;5049668;28;20234;-53
2023/09/12 11:08:19;;;;;;;19.67;16.73;;;;;;;;;;5048992;28;20216;-49
2023/09/12 11:10:46;;;;;;;19.77;17.67;;;;;;;;;;5047266;28;20173;-50
2023/09/12 11:13:19;;;;;;;20.70;18.47;;;;;;;;;;5047216;28;20176;-51
2023/09/12 11:16:08;;;;;;;24.07;20.20;;;;;;;;;;5049092;28;20165;-49
2023/09/12 11:18:34;;;;;;;21.67;19.37;;;;;;;;;;5040162;28;20199;-53
2023/09/12 11:21:04;;;;;;;22.97;19.13;;;;;;;;;;5050300;28;20272;-53
2023/09/12 11:23:34;;;;;;;23.57;20.10;;;;;;;;;;5050369;28;20254;-51
2023/09/12 11:26:08;;;;;;;23.00;20.33;;;;;;;;;;5050139;28;20177;-53
2023/09/12 11:28:35;;;;;;;22.57;20.20;;;;;;;;;;5050052;28;20217;-51
2023/09/12 11:31:00;;;;;;;23.47;20.83;;;;;;;;;;5049876;28;20479;-53
2023/09/12 11:33:28;;;;;;;25.07;21.60;;;;;;;;;;5047226;28;20161;-54
2023/09/12 11:35:54;;;;;;;23.27;20.77;;;;;;;;;;5049700;28;20227;-49
2023/09/12 11:38:29;;;;;;;25.70;21.60;;;;;;;;;;5050300;28;20223;-51
2023/09/12 11:40:55;;;;;;;29.10;21.23;;;;;;;;;;5051875;28;20587;-52
2023/09/12 11:43:25;;;;;;;23.20;19.10;;;;;;;;;;5049127;28;20199;-53
2023/09/12 11:45:52;;;;;;;24.53;20.93;;;;;;;;;;5050421;28;20166;-48
2023/09/12 11:48:18;;;;;;;25.60;21.93;;;;;;;;;;5050424;28;20197;-48
2023/09/12 11:50:50;;;;;;;24.77;20.77;;;;;;;;;;5050567;28;20201;-53
2023/09/12 11:53:20;;;;;;;21.00;18.63;;;;;;;;;;5049122;28;20213;-51
2023/09/12 11:55:46;;;;;;;25.47;19.80;;;;;;;;;;5047731;28;20235;-50
2023/09/12 11:58:16;;;;;;;24.07;20.23;;;;;;;;;;5047433;28;20653;-53
2023/09/12 12:00:52;;;;;;;20.47;18.27;;;;;;;;;;5047274;28;20176;-50
2023/09/12 12:03:19;;;;;;;21.43;19.13;;;;;;;;;;5045924;28;20177;-52
2023/09/12 12:05:45;;;;;;;18.80;16.77;;;;;;;;;;5046595;28;20201;-50
2023/09/12 12:08:13;;;;;;;26.00;19.93;;;;;;;;;;5044837;28;20215;-53
2023/09/12 12:10:39;;;;;;;22.60;19.10;;;;;;;;;;5047055;28;20276;-53
2023/09/12 12:13:12;;;;;;;17.40;15.63;;;;;;;;;;5046351;28;20170;-54
2023/09/12 12:15:38;;;;;;;19.20;16.07;;;;;;;;;;5047366;28;20170;-49
2023/09/12 12:18:05;;;;;;;17.53;15.40;;;;;;;;;;5046595;28;20264;-54
2023/09/12 12:20:31;;;;;;;24.53;17.50;;;;;;;;;;5046230;28;20272;-50
2023/09/12 12:22:57;;;;;;;18.07;16.17;;;;;;;;;;5046180;28;20235;-48
2023/09/12 12:25:24;;;;;;;21.27;16.37;;;;;;;;;;5045817;28;20173;-53
2023/09/12 12:27:50;;;;;;;22.17;16.93;;;;;;;;;;5047651;28;20274;-53
2023/09/12 12:30:16;;;;;;;19.90;16.30;;;;;;;;;;5046422;28;20673;-52
2023/09/12 12:32:46;;;;;;;27.47;16.60;;;;;;;;;;5047357;28;20176;-55
2023/09/12 12:35:22;;;;;;;19.57;17.47;;;;;;;;;;5047575;28;20256;-52
2023/09/12 12:37:49;;;;;;;16.57;14.20;;;;;;;;;;5048468;28;20192;-50
2023/09/12 12:40:16;;;;;;;19.83;16.17;;;;;;;;;;5049193;28;20169;-53
2023/09/12 12:42:43;;;;;;;18.93;16.00;;;;;;;;;;5049441;28;20161;-53
2023/09/12 12:45:17;;;;;;;16.87;15.17;;;;;;;;;;5048591;28;20304;-50
2023/09/12 12:47:44;;;;;;;13.70;11.60;;;;;;;;;;5046730;28;20197;-51
2023/09/12 12:50:12;;;;;;;17.47;15.27;;;;;;;;;;5045742;28;20205;-54
2023/09/12 12:52:38;;;;;;;17.80;15.20;;;;;;;;;;5043722;28;20371;-49
2023/09/12 12:55:05;;;;;;;16.27;13.97;;;;;;;;;;5044317;28;20704;-51
2023/09/12 12:57:32;;;;;;;16.83;15.03;;;;;;;;;;5043291;28;20185;-55
2023/09/12 13:00:00;;;;;;;17.17;14.97;;;;;;;;;;5044960;28;20591;-53
2023/09/12 13:02:32;;;;;;;15.43;13.27;;;;;;;;;;5044671;28;20264;-55
2023/09/12 13:04:58;;;;;;;19.57;17.23;;;;;;;;;;5044721;28;20251;-51
2023/09/12 13:07:24;;;;;;;18.80;16.47;;;;;;;;;;5046661;28;20161;-49
2023/09/12 13:09:51;;;;;;;16.97;14.97;;;;;;;;;;5047503;28;20613;-49
2023/09/12 13:12:17;;;;;;;17.17;15.37;;;;;;;;;;5047829;28;20181;-50
2023/09/12 13:14:44;;;;;;;17.60;14.50;;;;;;;;;;5047001;28;20177;-48
2023/09/12 13:17:11;;;;;;;17.70;15.90;;;;;;;;;;5044940;28;20429;-50
2023/09/12 13:19:37;;;;;;;21.97;16.43;;;;;;;;;;5048184;28;20272;-50
2023/09/12 13:22:03;;;;;;;17.27;15.47;;;;;;;;;;5049239;28;20217;-49
2023/09/12 13:24:29;;;;;;;16.23;14.53;;;;;;;;;;5048178;28;20173;-50
2023/09/12 13:26:55;;;;;;;18.03;15.23;;;;;;;;;;5045097;28;20392;-52
2023/09/12 13:29:21;;;;;;;19.20;15.80;;;;;;;;;;5042512;28;20484;-51
2023/09/12 13:31:47;;;;;;;18.43;15.97;;;;;;;;;;5042595;28;20200;-51
2023/09/12 13:34:13;;;;;;;16.53;14.90;;;;;;;;;;5043890;28;20599;-50
2023/09/12 13:36:39;;;;;;;17.20;15.47;;;;;;;;;;5044865;28;20184;-50
2023/09/12 13:39:06;;;;;;;18.17;16.23;;;;;;;;;;5044856;28;20246;-48
2023/09/12 13:41:32;;;;;;;17.37;14.70;;;;;;;;;;5044162;28;20363;-49
2023/09/12 13:43:59;;;;;;;14.60;13.10;;;;;;;;;;5044742;28;20280;-50
2023/09/12 13:46:25;;;;;;;17.20;15.37;;;;;;;;;;5044301;28;20745;-49
2023/09/12 13:48:51;;;;;;;15.27;13.77;;;;;;;;;;5045027;28;20308;-52
2023/09/12 13:51:17;;;;;;;15.40;13.80;;;;;;;;;;5044459;28;20260;-49
2023/09/12 13:53:43;;;;;;;16.07;14.10;;;;;;;;;;5044673;28;20443;-48
2023/09/12 13:56:09;;;;;;;13.90;12.50;;;;;;;;;;5042796;28;20173;-50
2023/09/12 13:58:36;;;;;;;13.50;12.20;;;;;;;;;;5039473;28;20275;-48
2023/09/12 14:01:03;;;;;;;14.10;12.70;;;;;;;;;;5037924;28;20331;-48
2023/09/12 14:03:29;;;;;;;14.10;12.20;;;;;;;;;;5037834;28;20384;-49
2023/09/12 14:05:55;;;;;;;13.10;11.53;;;;;;;;;;5038597;28;20571;-50
2023/09/12 14:08:21;;;;;;;14.70;11.93;;;;;;;;;;5038119;28;20528;-50
2023/09/12 14:10:48;;;;;;;15.40;12.40;;;;;;;;;;5041041;28;20224;-50
2023/09/12 14:13:13;;;;;;;15.13;13.67;;;;;;;;;;5041397;28;20177;-49
2023/09/12 14:15:40;;;;;;;14.20;12.80;;;;;;;;;;5045195;28;20166;-49
2023/09/12 14:18:06;;;;;;;14.83;13.33;;;;;;;;;;5045484;28;20359;-52